createdAt,value
2019-02-22T00:01:21.717Z,6.50
2019-02-22T00:04:12.400Z,6.50
2019-02-22T00:06:43.013Z,6.40
2019-02-22T00:09:17.279Z,6.40
2019-02-22T00:11:47.241Z,6.40
2019-02-22T00:14:17.604Z,6.40
2019-02-22T00:16:47.582Z,6.40
2019-02-22T00:19:22.563Z,6.50
2019-02-22T00:21:59.109Z,6.50
2019-02-22T00:24:42.268Z,6.50
2019-02-22T00:27:28.887Z,6.40
2019-02-22T00:30:10.113Z,6.40
2019-02-22T00:32:42.466Z,6.50
2019-02-22T00:35:19.454Z,6.50
2019-02-22T00:37:51.563Z,6.50
2019-02-22T00:40:31.065Z,6.50
2019-02-22T00:43:04.023Z,6.60
2019-02-22T00:45:34.426Z,6.60
2019-02-22T00:48:12.387Z,6.60
2019-02-22T00:50:42.428Z,6.60
2019-02-22T00:53:12.527Z,6.70
2019-02-22T00:55:42.339Z,6.80
2019-02-22T00:58:12.463Z,6.80
2019-02-22T01:00:56.256Z,6.80
2019-02-22T01:03:29.266Z,6.90
2019-02-22T01:06:01.978Z,7.00
2019-02-22T01:08:37.695Z,7.10
2019-02-22T01:11:08.607Z,7.20
2019-02-22T01:13:40.316Z,7.20
2019-02-22T01:16:12.005Z,7.40
2019-02-22T01:18:43.073Z,7.40
2019-02-22T01:21:13.417Z,7.40
2019-02-22T01:23:44.332Z,7.40
2019-02-22T01:26:18.146Z,7.30
2019-02-22T01:28:50.427Z,7.30
2019-02-22T01:31:23.605Z,7.20
2019-02-22T01:33:58.992Z,7.20
2019-02-22T01:36:29.394Z,7.30
2019-02-22T01:39:01.631Z,7.30
2019-02-22T01:41:34.173Z,7.30
2019-02-22T01:44:04.410Z,7.30
2019-02-22T01:46:44.044Z,7.40
2019-02-22T01:49:15.611Z,7.40
2019-02-22T01:51:50.206Z,7.40
2019-02-22T01:54:51.995Z,7.40
2019-02-22T01:57:44.843Z,7.30
2019-02-22T02:00:29.228Z,7.20
2019-02-22T02:03:06.064Z,7.20
2019-02-22T02:05:42.947Z,7.10
2019-02-22T02:08:16.731Z,7.10
2019-02-22T02:10:54.227Z,7.10
2019-02-22T02:13:21.761Z,7.10
2019-02-22T02:15:51.450Z,7.10
2019-02-22T02:18:21.374Z,7.10
2019-02-22T02:20:51.701Z,7.10
2019-02-22T02:23:22.659Z,7.10
2019-02-22T02:25:53.465Z,7.10
2019-02-22T02:28:23.588Z,7.10
2019-02-22T02:30:54.446Z,7.10
2019-02-22T02:33:26.724Z,7.10
2019-02-22T02:35:56.792Z,7.10
2019-02-22T02:38:30.073Z,7.10
2019-02-22T02:41:09.827Z,7.10
2019-02-22T02:43:36.447Z,7.10
2019-02-22T02:46:06.318Z,7.10
2019-02-22T02:48:36.645Z,7.10
2019-02-22T02:51:07.199Z,7.10
2019-02-22T02:53:37.460Z,7.10
2019-02-22T02:56:07.472Z,7.10
2019-02-22T02:58:40.970Z,7.20
2019-02-22T03:01:15.715Z,7.30
2019-02-22T03:03:46.410Z,7.30
2019-02-22T03:06:44.627Z,7.30
2019-02-22T03:09:15.256Z,7.30
2019-02-22T03:11:45.905Z,7.30
2019-02-22T03:14:15.913Z,7.30
2019-02-22T03:16:45.554Z,7.30
2019-02-22T03:19:15.652Z,7.30
2019-02-22T03:21:45.808Z,7.20
2019-02-22T03:24:15.406Z,7.20
2019-02-22T03:26:49.184Z,7.20
2019-02-22T03:29:20.293Z,7.20
2019-02-22T03:31:52.953Z,7.20
2019-02-22T03:34:24.241Z,7.10
2019-02-22T03:36:54.191Z,7.10
2019-02-22T03:39:27.962Z,7.10
2019-02-22T03:41:58.001Z,7.10
2019-02-22T03:44:31.635Z,7.10
2019-02-22T03:47:03.432Z,7.10
2019-02-22T03:49:35.698Z,7.10
2019-02-22T03:52:31.562Z,7.10
2019-02-22T03:55:01.554Z,7.20
2019-02-22T03:57:36.718Z,7.10
2019-02-22T04:00:03.969Z,7.10
2019-02-22T04:02:36.842Z,7.10
2019-02-22T04:05:10.185Z,7.10
2019-02-22T04:07:40.527Z,7.20
2019-02-22T04:10:17.904Z,7.10
2019-02-22T04:12:48.488Z,7.10
2019-02-22T04:15:19.072Z,7.10
2019-02-22T04:17:49.624Z,7.10
2019-02-22T04:20:19.473Z,7.10
2019-02-22T04:22:49.271Z,7.00
2019-02-22T04:25:19.014Z,7.00
2019-02-22T04:27:48.861Z,7.00
2019-02-22T04:30:18.589Z,7.00
2019-02-22T04:32:48.330Z,7.10
2019-02-22T04:35:20.614Z,7.00
2019-02-22T04:37:50.367Z,7.10
2019-02-22T04:40:20.729Z,7.10
2019-02-22T04:42:52.686Z,7.10
2019-02-22T04:45:23.731Z,7.10
2019-02-22T04:47:54.335Z,7.10
2019-02-22T04:50:24.681Z,7.10
2019-02-22T04:53:04.939Z,7.10
2019-02-22T04:55:37.682Z,7.10
2019-02-22T04:58:07.583Z,7.10
2019-02-22T05:00:38.635Z,7.10
2019-02-22T05:03:09.081Z,7.10
2019-02-22T05:05:38.986Z,7.10
2019-02-22T05:08:08.495Z,7.10
2019-02-22T05:10:38.688Z,7.10
2019-02-22T05:13:08.509Z,7.10
2019-02-22T05:15:38.119Z,7.10
2019-02-22T05:18:15.863Z,7.10
2019-02-22T05:20:45.903Z,7.10
2019-02-22T05:23:18.006Z,7.20
2019-02-22T05:25:48.557Z,7.20
2019-02-22T05:28:18.166Z,7.10
2019-02-22T05:30:51.519Z,7.10
2019-02-22T05:33:25.391Z,7.10
2019-02-22T05:35:55.370Z,7.00
2019-02-22T05:38:28.544Z,7.10
2019-02-22T05:41:02.588Z,7.00
2019-02-22T05:43:37.733Z,7.10
2019-02-22T05:46:09.423Z,7.10
2019-02-22T05:48:46.508Z,7.00
2019-02-22T05:51:17.981Z,7.00
2019-02-22T05:53:51.550Z,7.00
2019-02-22T05:56:21.471Z,7.00
2019-02-22T05:58:51.202Z,7.00
2019-02-22T06:01:20.940Z,7.00
2019-02-22T06:07:21.570Z,7.00
2019-02-22T06:09:53.392Z,7.00
2019-02-22T06:12:33.849Z,7.00
2019-02-22T06:14:56.560Z,7.00
2019-02-22T06:17:27.067Z,7.00
2019-02-22T06:19:56.711Z,7.00
2019-02-22T06:22:29.909Z,6.90
2019-02-22T06:24:58.253Z,6.90
2019-02-22T06:27:28.416Z,6.90
2019-02-22T06:29:57.993Z,6.90
2019-02-22T06:32:27.907Z,7.00
2019-02-22T06:34:57.416Z,7.00
2019-02-22T06:37:27.270Z,6.90
2019-02-22T06:39:57.353Z,6.90
2019-02-22T06:42:27.040Z,7.00
2019-02-22T06:44:58.517Z,6.90
2019-02-22T06:47:28.602Z,6.90
2019-02-22T06:49:58.888Z,6.90
2019-02-22T06:52:29.748Z,6.90
2019-02-22T06:55:00.691Z,6.90
2019-02-22T06:57:31.012Z,6.90
2019-02-22T07:00:01.030Z,6.90
2019-02-22T07:02:30.432Z,6.90
2019-02-22T07:05:00.378Z,6.90
2019-02-22T07:07:29.893Z,6.90
2019-02-22T07:10:00.011Z,6.90
2019-02-22T07:25:26.639Z,6.90
2019-02-22T07:40:16.368Z,7.00
2019-02-22T08:01:52.303Z,7.10
2019-02-22T08:04:23.526Z,7.10
2019-02-22T08:06:54.798Z,7.10
2019-02-22T08:09:28.589Z,7.20
2019-02-22T08:11:59.166Z,7.20
2019-02-22T08:14:44.940Z,7.20
2019-02-22T08:20:11.234Z,7.20
2019-02-22T08:22:54.609Z,7.30
2019-02-22T08:25:47.532Z,7.20
2019-02-22T08:28:31.042Z,7.20
2019-02-22T08:31:01.738Z,7.20
2019-02-22T08:33:38.430Z,7.30
2019-02-22T08:36:08.933Z,7.20
2019-02-22T08:38:40.111Z,7.30
2019-02-22T08:41:10.530Z,7.30
2019-02-22T08:43:41.235Z,7.30
2019-02-22T08:46:11.754Z,7.30
2019-02-22T08:48:45.062Z,7.40
2019-02-22T08:51:14.849Z,7.40
2019-02-22T08:53:45.501Z,7.40
2019-02-22T08:56:18.829Z,7.50
2019-02-22T08:58:49.118Z,7.50
2019-02-22T09:01:19.520Z,7.60
2019-02-22T09:03:51.363Z,7.60
2019-02-22T09:06:21.592Z,7.60
2019-02-22T09:08:53.650Z,7.60
2019-02-22T09:11:24.890Z,7.70
2019-02-22T09:13:57.152Z,7.80
2019-02-22T09:16:38.663Z,7.80
2019-02-22T09:19:09.715Z,7.80
2019-02-22T09:21:40.524Z,7.90
2019-02-22T09:24:16.200Z,8.00
2019-02-22T09:27:00.619Z,8.20
2019-02-22T09:29:33.454Z,8.20
2019-02-22T09:32:06.493Z,8.30
2019-02-22T09:34:39.750Z,8.40
2019-02-22T09:37:12.258Z,8.50
2019-02-22T09:39:42.150Z,8.60
2019-02-22T09:42:17.140Z,8.80
2019-02-22T09:44:43.895Z,8.90
2019-02-22T09:47:13.744Z,8.80
2019-02-22T09:49:53.871Z,8.90
2019-02-22T09:52:24.470Z,8.80
2019-02-22T09:54:56.224Z,8.80
2019-02-22T09:57:26.435Z,8.80
2019-02-22T09:59:56.949Z,8.80
2019-02-22T10:02:27.205Z,8.80
2019-02-22T10:04:56.618Z,8.80
2019-02-22T10:07:26.892Z,8.80
2019-02-22T10:09:57.797Z,8.80
2019-02-22T10:12:28.306Z,8.80
2019-02-22T10:18:48.565Z,8.80
2019-02-22T10:21:25.617Z,8.70
2019-02-22T10:23:55.791Z,8.70
2019-02-22T10:26:26.105Z,8.70
2019-02-22T10:28:55.861Z,8.70
2019-02-22T10:31:26.262Z,8.70
2019-02-22T10:33:57.269Z,8.80
2019-02-22T10:36:27.881Z,8.80
2019-02-22T10:38:57.918Z,8.90
2019-02-22T10:41:27.692Z,9.00
2019-02-22T10:43:57.816Z,9.20
2019-02-22T10:46:28.738Z,9.20
2019-02-22T10:48:59.589Z,9.40
2019-02-22T10:51:40.721Z,9.40
2019-02-22T10:54:24.761Z,9.50
2019-02-22T10:57:26.405Z,9.50
2019-02-22T11:00:51.466Z,9.60
2019-02-22T11:03:11.365Z,9.70
2019-02-22T11:05:52.881Z,9.80
2019-02-22T11:08:37.649Z,9.90
2019-02-22T11:11:34.863Z,9.90
2019-02-22T11:18:11.852Z,9.90
2019-02-22T11:21:08.481Z,10.10
2019-02-22T11:23:39.452Z,10.30
2019-02-22T11:26:12.671Z,10.30
2019-02-22T11:28:47.557Z,10.30
2019-02-22T11:31:17.470Z,10.10
2019-02-22T11:33:49.881Z,10.00
2019-02-22T11:36:21.240Z,9.90
2019-02-22T11:38:51.185Z,9.80
2019-02-22T11:41:31.078Z,9.70
2019-02-22T11:44:05.016Z,9.60
2019-02-22T11:46:35.624Z,9.60
2019-02-22T11:49:10.380Z,9.50
2019-02-22T11:51:41.005Z,9.40
2019-02-22T11:54:11.387Z,9.50
2019-02-22T11:56:46.054Z,9.50
2019-02-22T11:59:19.481Z,9.50
2019-02-22T12:02:04.875Z,9.60
2019-02-22T12:04:38.099Z,9.70
2019-02-22T12:07:15.651Z,9.80
2019-02-22T12:09:52.656Z,9.80
2019-02-22T12:12:24.405Z,10.00
2019-02-22T12:14:58.830Z,10.30
2019-02-22T12:17:57.407Z,10.50
2019-02-22T12:20:41.387Z,10.50
2019-02-22T12:23:10.975Z,10.30
2019-02-22T12:25:44.755Z,10.30
2019-02-22T12:28:15.015Z,10.20
2019-02-22T12:30:46.067Z,10.10
2019-02-22T12:33:16.301Z,10.20
2019-02-22T12:35:49.808Z,10.20
2019-02-22T12:38:18.701Z,10.20
2019-02-22T12:40:48.858Z,10.30
2019-02-22T12:43:23.595Z,10.40
2019-02-22T12:45:58.465Z,10.40
2019-02-22T12:48:29.430Z,10.40
2019-02-22T12:51:00.229Z,10.40
2019-02-22T12:53:30.236Z,10.40
2019-02-22T12:56:00.225Z,10.40
2019-02-22T12:58:29.929Z,10.30
2019-02-22T13:00:59.915Z,10.30
2019-02-22T13:03:29.589Z,10.30
2019-02-22T13:05:59.460Z,10.20
2019-02-22T13:08:29.541Z,10.10
2019-02-22T13:10:59.622Z,10.00
2019-02-22T13:13:30.881Z,10.00
2019-02-22T13:16:01.685Z,10.00
2019-02-22T13:18:33.168Z,10.00
2019-02-22T13:21:06.747Z,10.10
2019-02-22T13:23:44.346Z,10.10
2019-02-22T13:26:14.826Z,10.10
2019-02-22T13:28:47.499Z,10.10
2019-02-22T13:31:29.655Z,10.10
2019-02-22T13:33:49.447Z,10.20
2019-02-22T13:36:21.933Z,10.10
2019-02-22T13:38:52.521Z,10.10
2019-02-22T13:41:23.158Z,10.10
2019-02-22T13:43:53.369Z,10.10
2019-02-22T13:46:26.545Z,10.20
2019-02-22T13:48:56.034Z,10.20
2019-02-22T13:51:28.037Z,10.20
2019-02-22T13:53:59.363Z,10.20
2019-02-22T13:56:31.360Z,10.10
2019-02-22T13:59:03.333Z,10.10
2019-02-22T14:01:34.145Z,10.10
2019-02-22T14:04:08.487Z,10.00
2019-02-22T14:06:38.954Z,10.00
2019-02-22T14:09:10.110Z,10.00
2019-02-22T14:11:40.639Z,10.00
2019-02-22T14:14:12.422Z,10.00
2019-02-22T14:20:13.862Z,10.00
2019-02-22T14:26:12.760Z,10.00
2019-02-22T14:28:42.573Z,10.00
2019-02-22T14:31:22.291Z,9.90
2019-02-22T14:33:56.498Z,9.90
2019-02-22T14:36:29.076Z,9.90
2019-02-22T14:39:13.331Z,9.90
2019-02-22T14:42:26.219Z,9.90
2019-02-22T14:44:56.238Z,9.90
2019-02-22T14:50:27.608Z,9.80
2019-02-22T14:52:59.017Z,9.80
2019-02-22T14:55:35.436Z,9.80
2019-02-22T14:58:12.111Z,9.80
2019-02-22T15:00:45.059Z,9.80
2019-02-22T15:03:29.254Z,9.70
2019-02-22T15:06:08.363Z,9.70
2019-02-22T15:09:21.006Z,9.70
2019-02-22T15:18:29.130Z,9.50
2019-02-22T15:21:11.430Z,9.40
2019-02-22T15:23:44.493Z,9.40
2019-02-22T15:26:16.230Z,9.40
2019-02-22T15:28:50.707Z,9.40
2019-02-22T15:31:21.025Z,9.30
2019-02-22T15:33:50.423Z,9.30
2019-02-22T15:36:21.565Z,9.30
2019-02-22T15:38:52.084Z,9.20
2019-02-22T15:41:30.651Z,9.20
2019-02-22T15:44:00.642Z,9.20
2019-02-22T15:46:30.532Z,9.10
2019-02-22T15:49:01.268Z,9.10
2019-02-22T15:51:32.460Z,9.10
2019-02-22T15:54:02.933Z,9.00
2019-02-22T15:56:32.498Z,9.00
2019-02-22T15:59:02.202Z,8.90
2019-02-22T16:01:32.351Z,8.90
2019-02-22T16:04:21.637Z,8.80
2019-02-22T16:06:51.234Z,8.80
2019-02-22T16:09:28.633Z,8.70
2019-02-22T16:12:09.879Z,8.60
2019-02-22T16:14:41.843Z,8.50
2019-02-22T16:17:21.869Z,8.50
2019-02-22T16:20:17.162Z,8.40
2019-02-22T16:22:51.515Z,8.40
2019-02-22T16:25:22.099Z,8.40
2019-02-22T16:27:52.358Z,8.40
2019-02-22T16:30:23.715Z,8.40
2019-02-22T16:32:53.443Z,8.30
2019-02-22T16:35:29.494Z,8.40
2019-02-22T16:37:59.753Z,8.40
2019-02-22T16:40:32.525Z,8.30
2019-02-22T16:43:03.253Z,8.30
2019-02-22T16:45:33.307Z,8.30
2019-02-22T16:48:04.317Z,8.30
2019-02-22T16:50:34.085Z,8.30
2019-02-22T16:53:04.109Z,8.30
2019-02-22T16:55:33.468Z,8.20
2019-02-22T16:58:03.771Z,8.20
2019-02-22T17:00:33.591Z,8.10
2019-02-22T17:03:03.528Z,8.10
2019-02-22T17:05:34.270Z,8.00
2019-02-22T17:08:04.610Z,8.00
2019-02-22T17:10:34.439Z,8.00
2019-02-22T17:13:04.663Z,7.90
2019-02-22T17:15:34.702Z,7.80
2019-02-22T17:18:04.923Z,7.70
2019-02-22T17:20:35.057Z,7.70
2019-02-22T17:23:05.423Z,7.60
2019-02-22T17:25:35.630Z,7.60
2019-02-22T17:28:05.313Z,7.50
2019-02-22T17:30:34.900Z,7.50
2019-02-22T17:33:04.319Z,7.50
2019-02-22T17:35:33.673Z,7.50
2019-02-22T17:38:03.026Z,7.50
2019-02-22T17:40:32.534Z,7.50
2019-02-22T17:43:02.045Z,7.40
2019-02-22T17:45:31.889Z,7.40
2019-02-22T17:48:01.369Z,7.40
2019-02-22T17:50:31.154Z,7.40
2019-02-22T17:53:01.284Z,7.40
2019-02-22T18:06:05.167Z,7.10
2019-02-22T18:08:49.430Z,7.10
2019-02-22T18:11:29.278Z,7.00
2019-02-22T18:14:00.594Z,7.00
2019-02-22T18:16:31.339Z,6.90
2019-02-22T18:19:03.793Z,7.00
2019-02-22T18:22:06.753Z,6.90
2019-02-22T18:24:40.341Z,6.90
2019-02-22T18:27:16.704Z,6.80
2019-02-22T18:29:46.907Z,6.70
2019-02-22T18:32:17.953Z,6.70
2019-02-22T18:34:54.571Z,6.70
2019-02-22T18:37:30.155Z,6.60
2019-02-22T18:40:02.642Z,6.60
2019-02-22T18:42:37.971Z,6.60
2019-02-22T18:45:14.782Z,6.50
2019-02-22T18:47:51.085Z,6.50
2019-02-22T18:50:37.863Z,6.50
2019-02-22T18:53:08.896Z,6.50
2019-02-22T18:55:50.141Z,6.50
2019-02-22T18:58:17.602Z,6.50
2019-02-22T19:00:49.408Z,6.40
2019-02-22T19:03:45.103Z,6.40
2019-02-22T19:06:18.989Z,6.30
2019-02-22T19:11:45.884Z,6.30
2019-02-22T19:14:18.498Z,6.20
2019-02-22T19:16:55.351Z,6.20
2019-02-22T19:19:27.482Z,6.10
2019-02-22T19:21:57.872Z,6.20
2019-02-22T19:24:30.255Z,6.10
2019-02-22T19:27:02.466Z,6.00
2019-02-22T19:29:40.155Z,6.00
2019-02-22T19:32:10.015Z,6.10
2019-02-22T19:34:40.246Z,6.00
2019-02-22T19:37:11.656Z,5.90
2019-02-22T19:39:46.791Z,5.90
2019-02-22T19:42:40.160Z,6.00
2019-02-22T19:45:17.482Z,5.90
2019-02-22T19:51:04.127Z,5.80
2019-02-22T19:54:10.344Z,5.80
2019-02-22T19:56:48.694Z,5.70
2019-02-22T20:02:01.934Z,5.70
2019-02-22T20:04:33.044Z,5.80
2019-02-22T20:07:03.584Z,5.70
2019-02-22T20:09:33.902Z,5.70
2019-02-22T20:12:25.133Z,5.50
2019-02-22T20:15:00.234Z,5.50
2019-02-22T20:17:55.220Z,5.40
2019-02-22T20:20:26.487Z,5.50
2019-02-22T20:23:00.256Z,5.50
2019-02-22T20:25:38.144Z,5.40
2019-02-22T20:28:04.998Z,5.50
2019-02-22T20:30:42.418Z,5.50
2019-02-22T20:33:16.040Z,5.40
2019-02-22T20:35:49.673Z,5.40
2019-02-22T20:38:39.133Z,5.30
2019-02-22T20:41:11.243Z,5.30
2019-02-22T20:43:47.030Z,5.30
2019-02-22T20:46:31.816Z,5.30
2019-02-22T20:49:23.865Z,5.20
2019-02-22T20:52:03.889Z,5.30
2019-02-22T20:54:45.111Z,5.20
2019-02-22T20:57:16.181Z,5.20
2019-02-22T20:59:47.322Z,5.20
2019-02-22T21:02:17.464Z,5.10
2019-02-22T21:04:50.467Z,5.10
2019-02-22T21:07:24.448Z,5.10
2019-02-22T21:09:58.106Z,5.00
2019-02-22T21:12:50.398Z,5.00
2019-02-22T21:15:25.952Z,4.90
2019-02-22T21:17:56.993Z,4.90
2019-02-22T21:20:39.095Z,4.90
2019-02-22T21:23:31.075Z,4.90
2019-02-22T21:26:17.921Z,5.00
2019-02-22T21:29:26.761Z,5.00
2019-02-22T21:32:02.147Z,5.00
2019-02-22T21:34:34.608Z,4.90
2019-02-22T21:37:11.646Z,4.90
2019-02-22T21:40:00.915Z,4.80
2019-02-22T21:42:31.126Z,4.70
2019-02-22T21:45:04.058Z,4.80
2019-02-22T21:47:54.697Z,4.80
2019-02-22T21:50:51.065Z,4.80
2019-02-22T21:53:25.188Z,4.70
2019-02-22T21:55:57.859Z,4.70
2019-02-22T21:58:28.129Z,4.70
2019-02-22T22:01:05.051Z,4.70
2019-02-22T22:03:39.294Z,4.60
2019-02-22T22:06:09.676Z,4.60
2019-02-22T22:08:40.842Z,4.50
2019-02-22T22:11:13.858Z,4.50
2019-02-22T22:13:56.020Z,4.40
2019-02-22T22:16:29.681Z,4.50
2019-02-22T22:19:00.096Z,4.50
2019-02-22T22:21:39.084Z,4.50
2019-02-22T22:24:16.783Z,4.50
2019-02-22T22:26:47.423Z,4.50
2019-02-22T22:29:31.945Z,4.40
2019-02-22T22:32:08.676Z,4.50
2019-02-22T22:34:49.888Z,4.40
2019-02-22T22:37:57.973Z,4.40
2019-02-22T22:40:10.443Z,4.30
2019-02-22T22:42:45.410Z,4.30
2019-02-22T22:45:17.420Z,4.30
2019-02-22T22:47:53.802Z,4.30
2019-02-22T22:50:28.178Z,4.20
2019-02-22T22:53:00.806Z,4.20
2019-02-22T22:55:37.580Z,4.30
2019-02-22T22:58:08.621Z,4.30
2019-02-22T23:01:11.322Z,4.30
2019-02-22T23:03:44.890Z,4.30
2019-02-22T23:06:33.857Z,4.20
2019-02-22T23:09:29.761Z,4.20
2019-02-22T23:12:11.407Z,4.30
2019-02-22T23:14:52.217Z,4.30
2019-02-22T23:17:24.020Z,4.20
2019-02-22T23:20:00.496Z,4.10
2019-02-22T23:22:34.392Z,4.10
2019-02-22T23:25:04.956Z,4.10
2019-02-22T23:27:36.619Z,4.10
2019-02-22T23:30:07.946Z,4.00
2019-02-22T23:32:55.823Z,4.10
2019-02-22T23:35:43.766Z,4.10
2019-02-22T23:38:14.499Z,4.10
2019-02-22T23:40:47.208Z,4.10
2019-02-22T23:43:19.635Z,4.00
2019-02-22T23:45:55.055Z,4.10
2019-02-22T23:48:25.912Z,4.00
2019-02-22T23:50:56.530Z,4.00
2019-02-22T23:53:28.662Z,3.90
2019-02-22T23:55:59.360Z,4.00
2019-02-22T23:58:35.281Z,4.00
